sensor_id;sensor_type;location;lat;lon;timestamp;P1;durP1;ratioP1;P2;durP2;ratioP2
24030;SDS011;12240;51.142;22.486;2023-06-24T00:00:26;22.52;;;7.85;;
24030;SDS011;12240;51.142;22.486;2023-06-24T00:02:55;31.08;;;8.07;;
24030;SDS011;12240;51.142;22.486;2023-06-24T00:05:23;28.33;;;8.98;;
24030;SDS011;12240;51.142;22.486;2023-06-24T00:07:51;28.23;;;9.52;;
24030;SDS011;12240;51.142;22.486;2023-06-24T00:10:20;21.45;;;9.13;;
24030;SDS011;12240;51.142;22.486;2023-06-24T00:12:48;20.75;;;8.77;;
24030;SDS011;12240;51.142;22.486;2023-06-24T00:15:16;26.20;;;9.18;;
24030;SDS011;12240;51.142;22.486;2023-06-24T00:17:45;25.90;;;9.77;;
24030;SDS011;12240;51.142;22.486;2023-06-24T00:20:13;27.27;;;9.48;;
24030;SDS011;12240;51.142;22.486;2023-06-24T00:22:42;21.25;;;10.25;;
24030;SDS011;12240;51.142;22.486;2023-06-24T00:25:11;27.52;;;10.32;;
24030;SDS011;12240;51.142;22.486;2023-06-24T00:27:40;25.95;;;10.48;;
24030;SDS011;12240;51.142;22.486;2023-06-24T00:30:10;25.83;;;10.70;;
24030;SDS011;12240;51.142;22.486;2023-06-24T00:32:39;24.83;;;10.55;;
24030;SDS011;12240;51.142;22.486;2023-06-24T00:35:07;24.33;;;10.00;;
24030;SDS011;12240;51.142;22.486;2023-06-24T00:37:40;34.58;;;10.80;;
24030;SDS011;12240;51.142;22.486;2023-06-24T00:40:13;33.33;;;10.23;;
24030;SDS011;12240;51.142;22.486;2023-06-24T00:42:45;33.75;;;10.90;;
24030;SDS011;12240;51.142;22.486;2023-06-24T00:45:13;29.63;;;12.13;;
24030;SDS011;12240;51.142;22.486;2023-06-24T00:50:14;26.23;;;11.73;;
24030;SDS011;12240;51.142;22.486;2023-06-24T00:52:43;29.25;;;12.25;;
24030;SDS011;12240;51.142;22.486;2023-06-24T00:55:11;29.27;;;11.75;;
24030;SDS011;12240;51.142;22.486;2023-06-24T00:57:41;25.48;;;11.48;;
24030;SDS011;12240;51.142;22.486;2023-06-24T01:00:13;22.35;;;10.85;;
24030;SDS011;12240;51.142;22.486;2023-06-24T01:02:44;18.98;;;10.73;;
24030;SDS011;12240;51.142;22.486;2023-06-24T01:05:16;21.40;;;10.27;;
24030;SDS011;12240;51.142;22.486;2023-06-24T01:07:44;19.77;;;10.05;;
24030;SDS011;12240;51.142;22.486;2023-06-24T01:10:22;17.42;;;9.23;;
24030;SDS011;12240;51.142;22.486;2023-06-24T01:12:52;16.65;;;9.10;;
24030;SDS011;12240;51.142;22.486;2023-06-24T01:15:20;16.48;;;8.80;;
24030;SDS011;12240;51.142;22.486;2023-06-24T01:20:47;16.52;;;8.98;;
24030;SDS011;12240;51.142;22.486;2023-06-24T01:32:48;10.93;;;6.72;;
24030;SDS011;12240;51.142;22.486;2023-06-24T01:35:28;15.50;;;6.00;;
24030;SDS011;12240;51.142;22.486;2023-06-24T01:38:04;12.57;;;5.82;;
24030;SDS011;12240;51.142;22.486;2023-06-24T01:40:44;12.00;;;5.60;;
24030;SDS011;12240;51.142;22.486;2023-06-24T01:43:15;14.48;;;5.38;;
24030;SDS011;12240;51.142;22.486;2023-06-24T01:45:45;9.70;;;5.80;;
24030;SDS011;12240;51.142;22.486;2023-06-24T01:48:28;11.57;;;5.25;;
24030;SDS011;12240;51.142;22.486;2023-06-24T01:53:44;11.18;;;5.75;;
24030;SDS011;12240;51.142;22.486;2023-06-24T01:56:18;9.15;;;4.93;;
24030;SDS011;12240;51.142;22.486;2023-06-24T01:58:50;7.93;;;4.95;;
24030;SDS011;12240;51.142;22.486;2023-06-24T02:01:21;9.23;;;5.00;;
24030;SDS011;12240;51.142;22.486;2023-06-24T02:03:51;14.52;;;5.00;;
24030;SDS011;12240;51.142;22.486;2023-06-24T02:06:22;10.25;;;5.35;;
24030;SDS011;12240;51.142;22.486;2023-06-24T02:08:53;11.18;;;5.22;;
24030;SDS011;12240;51.142;22.486;2023-06-24T02:11:25;12.90;;;4.90;;
24030;SDS011;12240;51.142;22.486;2023-06-24T02:16:26;13.05;;;5.50;;
24030;SDS011;12240;51.142;22.486;2023-06-24T02:18:56;10.00;;;4.88;;
24030;SDS011;12240;51.142;22.486;2023-06-24T02:21:25;11.82;;;5.20;;
24030;SDS011;12240;51.142;22.486;2023-06-24T02:23:53;11.23;;;4.50;;
24030;SDS011;12240;51.142;22.486;2023-06-24T02:26:22;9.95;;;4.38;;
24030;SDS011;12240;51.142;22.486;2023-06-24T02:28:53;9.52;;;4.32;;
24030;SDS011;12240;51.142;22.486;2023-06-24T02:31:21;11.05;;;4.45;;
24030;SDS011;12240;51.142;22.486;2023-06-24T02:33:50;9.65;;;4.30;;
24030;SDS011;12240;51.142;22.486;2023-06-24T02:36:19;7.28;;;4.13;;
24030;SDS011;12240;51.142;22.486;2023-06-24T02:38:48;14.00;;;4.55;;
24030;SDS011;12240;51.142;22.486;2023-06-24T02:41:16;6.72;;;4.13;;
24030;SDS011;12240;51.142;22.486;2023-06-24T02:43:44;7.72;;;4.10;;
24030;SDS011;12240;51.142;22.486;2023-06-24T02:46:13;10.80;;;4.10;;
24030;SDS011;12240;51.142;22.486;2023-06-24T02:48:43;7.10;;;3.75;;
24030;SDS011;12240;51.142;22.486;2023-06-24T02:51:13;10.50;;;4.32;;
24030;SDS011;12240;51.142;22.486;2023-06-24T02:53:41;9.50;;;4.22;;
24030;SDS011;12240;51.142;22.486;2023-06-24T02:56:14;12.48;;;4.53;;
24030;SDS011;12240;51.142;22.486;2023-06-24T02:58:49;10.95;;;4.20;;
24030;SDS011;12240;51.142;22.486;2023-06-24T03:01:23;6.97;;;3.75;;
24030;SDS011;12240;51.142;22.486;2023-06-24T03:03:54;10.63;;;4.10;;
24030;SDS011;12240;51.142;22.486;2023-06-24T03:06:23;6.85;;;3.97;;
24030;SDS011;12240;51.142;22.486;2023-06-24T03:08:55;7.35;;;3.80;;
24030;SDS011;12240;51.142;22.486;2023-06-24T03:11:25;10.55;;;4.07;;
24030;SDS011;12240;51.142;22.486;2023-06-24T03:13:59;8.23;;;3.83;;
24030;SDS011;12240;51.142;22.486;2023-06-24T03:16:40;6.40;;;3.33;;
24030;SDS011;12240;51.142;22.486;2023-06-24T03:19:15;6.90;;;3.25;;
24030;SDS011;12240;51.142;22.486;2023-06-24T03:21:44;12.30;;;4.45;;
24030;SDS011;12240;51.142;22.486;2023-06-24T03:24:15;7.83;;;4.07;;
24030;SDS011;12240;51.142;22.486;2023-06-24T03:26:47;6.65;;;3.63;;
24030;SDS011;12240;51.142;22.486;2023-06-24T03:29:16;7.47;;;3.58;;
24030;SDS011;12240;51.142;22.486;2023-06-24T03:31:54;9.88;;;3.88;;
24030;SDS011;12240;51.142;22.486;2023-06-24T03:34:25;6.25;;;3.45;;
24030;SDS011;12240;51.142;22.486;2023-06-24T03:36:54;7.90;;;3.63;;
24030;SDS011;12240;51.142;22.486;2023-06-24T03:39:22;6.18;;;3.60;;
24030;SDS011;12240;51.142;22.486;2023-06-24T03:41:51;8.23;;;3.50;;
24030;SDS011;12240;51.142;22.486;2023-06-24T03:44:19;10.25;;;3.45;;
24030;SDS011;12240;51.142;22.486;2023-06-24T03:46:47;8.90;;;3.55;;
24030;SDS011;12240;51.142;22.486;2023-06-24T03:49:15;7.93;;;3.42;;
24030;SDS011;12240;51.142;22.486;2023-06-24T03:51:45;11.50;;;3.67;;
24030;SDS011;12240;51.142;22.486;2023-06-24T03:54:13;7.55;;;3.90;;
24030;SDS011;12240;51.142;22.486;2023-06-24T03:56:42;10.30;;;3.53;;
24030;SDS011;12240;51.142;22.486;2023-06-24T03:59:10;5.85;;;3.35;;
24030;SDS011;12240;51.142;22.486;2023-06-24T04:01:38;6.18;;;3.70;;
24030;SDS011;12240;51.142;22.486;2023-06-24T04:04:06;4.57;;;3.05;;
24030;SDS011;12240;51.142;22.486;2023-06-24T04:06:34;7.50;;;3.20;;
24030;SDS011;12240;51.142;22.486;2023-06-24T04:09:02;6.85;;;3.60;;
24030;SDS011;12240;51.142;22.486;2023-06-24T04:11:31;7.72;;;3.58;;
24030;SDS011;12240;51.142;22.486;2023-06-24T04:14:00;7.30;;;3.40;;
24030;SDS011;12240;51.142;22.486;2023-06-24T04:16:29;9.52;;;3.65;;
24030;SDS011;12240;51.142;22.486;2023-06-24T04:18:57;5.70;;;3.28;;
24030;SDS011;12240;51.142;22.486;2023-06-24T04:21:25;8.15;;;3.13;;
24030;SDS011;12240;51.142;22.486;2023-06-24T04:23:53;8.07;;;3.53;;
24030;SDS011;12240;51.142;22.486;2023-06-24T04:26:21;8.70;;;3.65;;
24030;SDS011;12240;51.142;22.486;2023-06-24T04:28:50;6.82;;;3.50;;
24030;SDS011;12240;51.142;22.486;2023-06-24T04:31:18;5.63;;;3.38;;
24030;SDS011;12240;51.142;22.486;2023-06-24T04:33:46;5.93;;;3.45;;
24030;SDS011;12240;51.142;22.486;2023-06-24T04:36:14;6.10;;;3.20;;
24030;SDS011;12240;51.142;22.486;2023-06-24T04:38:43;8.85;;;3.20;;
24030;SDS011;12240;51.142;22.486;2023-06-24T04:41:11;7.32;;;3.72;;
24030;SDS011;12240;51.142;22.486;2023-06-24T04:43:40;8.82;;;3.40;;
24030;SDS011;12240;51.142;22.486;2023-06-24T04:46:08;8.90;;;3.35;;
24030;SDS011;12240;51.142;22.486;2023-06-24T04:48:36;6.53;;;3.50;;
24030;SDS011;12240;51.142;22.486;2023-06-24T04:51:04;9.05;;;3.60;;
24030;SDS011;12240;51.142;22.486;2023-06-24T04:53:32;6.95;;;3.40;;
24030;SDS011;12240;51.142;22.486;2023-06-24T04:56:01;8.75;;;3.30;;
24030;SDS011;12240;51.142;22.486;2023-06-24T04:58:29;7.78;;;3.33;;
24030;SDS011;12240;51.142;22.486;2023-06-24T05:00:57;7.45;;;3.50;;
24030;SDS011;12240;51.142;22.486;2023-06-24T05:03:26;7.70;;;3.30;;
24030;SDS011;12240;51.142;22.486;2023-06-24T05:05:54;9.60;;;3.50;;
24030;SDS011;12240;51.142;22.486;2023-06-24T05:08:22;7.53;;;3.90;;
24030;SDS011;12240;51.142;22.486;2023-06-24T05:10:51;8.15;;;3.83;;
24030;SDS011;12240;51.142;22.486;2023-06-24T05:13:19;6.55;;;3.40;;
24030;SDS011;12240;51.142;22.486;2023-06-24T05:15:47;7.45;;;3.63;;
24030;SDS011;12240;51.142;22.486;2023-06-24T05:18:15;6.82;;;3.63;;
24030;SDS011;12240;51.142;22.486;2023-06-24T05:20:43;10.43;;;4.20;;
24030;SDS011;12240;51.142;22.486;2023-06-24T05:23:11;9.93;;;3.83;;
24030;SDS011;12240;51.142;22.486;2023-06-24T05:25:39;9.35;;;4.15;;
24030;SDS011;12240;51.142;22.486;2023-06-24T05:28:07;7.80;;;3.63;;
24030;SDS011;12240;51.142;22.486;2023-06-24T05:30:35;11.25;;;4.07;;
24030;SDS011;12240;51.142;22.486;2023-06-24T05:33:03;8.45;;;3.55;;
24030;SDS011;12240;51.142;22.486;2023-06-24T05:35:34;6.35;;;3.50;;
24030;SDS011;12240;51.142;22.486;2023-06-24T05:38:05;9.02;;;3.70;;
24030;SDS011;12240;51.142;22.486;2023-06-24T05:40:33;7.28;;;3.38;;
24030;SDS011;12240;51.142;22.486;2023-06-24T05:43:01;8.70;;;3.55;;
24030;SDS011;12240;51.142;22.486;2023-06-24T05:45:30;8.52;;;3.67;;
24030;SDS011;12240;51.142;22.486;2023-06-24T05:47:58;8.40;;;3.67;;
24030;SDS011;12240;51.142;22.486;2023-06-24T05:50:26;5.55;;;3.25;;
24030;SDS011;12240;51.142;22.486;2023-06-24T05:52:55;9.23;;;3.67;;
24030;SDS011;12240;51.142;22.486;2023-06-24T05:55:23;5.95;;;2.90;;
24030;SDS011;12240;51.142;22.486;2023-06-24T05:57:51;8.18;;;3.03;;
24030;SDS011;12240;51.142;22.486;2023-06-24T06:00:19;6.47;;;3.72;;
24030;SDS011;12240;51.142;22.486;2023-06-24T06:02:49;9.43;;;3.67;;
24030;SDS011;12240;51.142;22.486;2023-06-24T06:05:17;6.57;;;3.80;;
24030;SDS011;12240;51.142;22.486;2023-06-24T06:07:45;6.82;;;3.55;;
24030;SDS011;12240;51.142;22.486;2023-06-24T06:10:14;5.65;;;3.40;;
24030;SDS011;12240;51.142;22.486;2023-06-24T06:12:44;9.97;;;3.50;;
24030;SDS011;12240;51.142;22.486;2023-06-24T06:15:13;5.97;;;3.38;;
24030;SDS011;12240;51.142;22.486;2023-06-24T06:17:41;7.35;;;3.72;;
24030;SDS011;12240;51.142;22.486;2023-06-24T06:20:09;7.15;;;3.72;;
24030;SDS011;12240;51.142;22.486;2023-06-24T06:22:38;6.25;;;3.60;;
24030;SDS011;12240;51.142;22.486;2023-06-24T06:25:06;8.90;;;3.83;;
24030;SDS011;12240;51.142;22.486;2023-06-24T06:27:35;6.72;;;3.40;;
24030;SDS011;12240;51.142;22.486;2023-06-24T06:30:04;5.55;;;3.17;;
24030;SDS011;12240;51.142;22.486;2023-06-24T06:32:33;7.25;;;3.45;;
24030;SDS011;12240;51.142;22.486;2023-06-24T06:35:01;7.22;;;3.50;;
24030;SDS011;12240;51.142;22.486;2023-06-24T06:37:30;7.63;;;3.75;;
24030;SDS011;12240;51.142;22.486;2023-06-24T06:39:58;4.80;;;3.30;;
24030;SDS011;12240;51.142;22.486;2023-06-24T06:42:26;7.38;;;3.95;;
24030;SDS011;12240;51.142;22.486;2023-06-24T06:44:54;8.07;;;3.20;;
24030;SDS011;12240;51.142;22.486;2023-06-24T06:47:22;5.50;;;3.33;;
24030;SDS011;12240;51.142;22.486;2023-06-24T06:49:50;5.65;;;3.78;;
24030;SDS011;12240;51.142;22.486;2023-06-24T06:52:18;7.25;;;3.65;;
24030;SDS011;12240;51.142;22.486;2023-06-24T06:54:47;6.72;;;3.85;;
24030;SDS011;12240;51.142;22.486;2023-06-24T06:57:15;10.80;;;3.65;;
24030;SDS011;12240;51.142;22.486;2023-06-24T06:59:43;10.50;;;3.67;;
24030;SDS011;12240;51.142;22.486;2023-06-24T07:02:12;9.93;;;3.13;;
24030;SDS011;12240;51.142;22.486;2023-06-24T07:04:40;5.43;;;3.30;;
24030;SDS011;12240;51.142;22.486;2023-06-24T07:07:08;6.85;;;3.55;;
24030;SDS011;12240;51.142;22.486;2023-06-24T07:09:36;5.05;;;3.47;;
24030;SDS011;12240;51.142;22.486;2023-06-24T07:12:05;6.97;;;3.45;;
24030;SDS011;12240;51.142;22.486;2023-06-24T07:14:34;5.90;;;3.25;;
24030;SDS011;12240;51.142;22.486;2023-06-24T07:17:02;8.50;;;3.25;;
24030;SDS011;12240;51.142;22.486;2023-06-24T07:19:31;5.80;;;3.15;;
24030;SDS011;12240;51.142;22.486;2023-06-24T07:21:59;4.43;;;3.17;;
24030;SDS011;12240;51.142;22.486;2023-06-24T07:24:27;8.13;;;3.08;;
24030;SDS011;12240;51.142;22.486;2023-06-24T07:26:55;4.10;;;3.10;;
24030;SDS011;12240;51.142;22.486;2023-06-24T07:29:23;5.90;;;3.00;;
24030;SDS011;12240;51.142;22.486;2023-06-24T07:31:52;6.25;;;3.20;;
24030;SDS011;12240;51.142;22.486;2023-06-24T07:34:20;6.68;;;4.13;;
24030;SDS011;12240;51.142;22.486;2023-06-24T07:36:48;6.25;;;3.40;;
24030;SDS011;12240;51.142;22.486;2023-06-24T07:39:17;3.75;;;2.70;;
24030;SDS011;12240;51.142;22.486;2023-06-24T07:41:45;7.18;;;3.17;;
24030;SDS011;12240;51.142;22.486;2023-06-24T07:44:14;5.53;;;2.90;;
24030;SDS011;12240;51.142;22.486;2023-06-24T07:46:42;4.97;;;2.90;;
24030;SDS011;12240;51.142;22.486;2023-06-24T07:49:10;4.40;;;2.80;;
24030;SDS011;12240;51.142;22.486;2023-06-24T07:51:39;4.03;;;2.72;;
24030;SDS011;12240;51.142;22.486;2023-06-24T07:54:07;5.78;;;3.00;;
24030;SDS011;12240;51.142;22.486;2023-06-24T07:56:35;5.38;;;2.90;;
24030;SDS011;12240;51.142;22.486;2023-06-24T07:59:03;6.28;;;3.28;;
24030;SDS011;12240;51.142;22.486;2023-06-24T08:01:31;5.10;;;3.00;;
24030;SDS011;12240;51.142;22.486;2023-06-24T08:03:59;6.53;;;2.75;;
24030;SDS011;12240;51.142;22.486;2023-06-24T08:06:27;6.75;;;3.25;;
24030;SDS011;12240;51.142;22.486;2023-06-24T08:08:55;5.35;;;3.13;;
24030;SDS011;12240;51.142;22.486;2023-06-24T08:11:24;5.57;;;3.10;;
24030;SDS011;12240;51.142;22.486;2023-06-24T08:13:53;8.52;;;3.00;;
24030;SDS011;12240;51.142;22.486;2023-06-24T08:16:21;8.35;;;2.88;;
24030;SDS011;12240;51.142;22.486;2023-06-24T08:18:49;5.55;;;3.30;;
24030;SDS011;12240;51.142;22.486;2023-06-24T08:21:17;5.45;;;3.15;;
24030;SDS011;12240;51.142;22.486;2023-06-24T08:28:49;5.32;;;3.30;;
24030;SDS011;12240;51.142;22.486;2023-06-24T08:31:16;7.93;;;3.28;;
24030;SDS011;12240;51.142;22.486;2023-06-24T08:33:53;4.80;;;2.80;;
24030;SDS011;12240;51.142;22.486;2023-06-24T08:36:22;8.68;;;3.72;;
24030;SDS011;12240;51.142;22.486;2023-06-24T08:38:53;7.60;;;3.58;;
24030;SDS011;12240;51.142;22.486;2023-06-24T08:41:22;10.60;;;3.53;;
24030;SDS011;12240;51.142;22.486;2023-06-24T08:43:52;6.13;;;3.42;;
24030;SDS011;12240;51.142;22.486;2023-06-24T08:46:24;6.05;;;3.03;;
24030;SDS011;12240;51.142;22.486;2023-06-24T08:48:54;6.32;;;3.25;;
24030;SDS011;12240;51.142;22.486;2023-06-24T08:51:58;4.88;;;3.08;;
24030;SDS011;12240;51.142;22.486;2023-06-24T08:54:29;6.82;;;3.50;;
24030;SDS011;12240;51.142;22.486;2023-06-24T08:57:02;4.90;;;2.92;;
24030;SDS011;12240;51.142;22.486;2023-06-24T08:59:33;6.30;;;3.10;;
24030;SDS011;12240;51.142;22.486;2023-06-24T09:02:04;6.72;;;2.80;;
24030;SDS011;12240;51.142;22.486;2023-06-24T09:04:34;4.90;;;3.22;;
24030;SDS011;12240;51.142;22.486;2023-06-24T09:07:02;5.72;;;3.03;;
24030;SDS011;12240;51.142;22.486;2023-06-24T09:09:41;5.15;;;2.97;;
24030;SDS011;12240;51.142;22.486;2023-06-24T09:12:13;5.50;;;2.67;;
24030;SDS011;12240;51.142;22.486;2023-06-24T09:14:47;8.23;;;3.10;;
24030;SDS011;12240;51.142;22.486;2023-06-24T09:17:17;5.78;;;3.08;;
24030;SDS011;12240;51.142;22.486;2023-06-24T09:19:50;5.68;;;2.70;;
24030;SDS011;12240;51.142;22.486;2023-06-24T09:22:18;3.58;;;1.80;;
24030;SDS011;12240;51.142;22.486;2023-06-24T09:24:47;9.43;;;2.72;;
24030;SDS011;12240;51.142;22.486;2023-06-24T09:27:16;5.18;;;2.30;;
24030;SDS011;12240;51.142;22.486;2023-06-24T09:29:49;5.07;;;2.58;;
24030;SDS011;12240;51.142;22.486;2023-06-24T09:32:17;7.95;;;2.83;;
24030;SDS011;12240;51.142;22.486;2023-06-24T09:34:46;5.53;;;2.92;;
24030;SDS011;12240;51.142;22.486;2023-06-24T09:37:20;4.30;;;2.60;;
24030;SDS011;12240;51.142;22.486;2023-06-24T09:39:58;4.75;;;2.55;;
24030;SDS011;12240;51.142;22.486;2023-06-24T09:42:28;4.87;;;2.80;;
24030;SDS011;12240;51.142;22.486;2023-06-24T09:44:56;5.70;;;2.70;;
24030;SDS011;12240;51.142;22.486;2023-06-24T09:47:25;5.15;;;2.67;;
24030;SDS011;12240;51.142;22.486;2023-06-24T09:49:54;6.05;;;2.78;;
24030;SDS011;12240;51.142;22.486;2023-06-24T09:52:23;6.10;;;3.20;;
24030;SDS011;12240;51.142;22.486;2023-06-24T09:54:51;4.50;;;2.70;;
24030;SDS011;12240;51.142;22.486;2023-06-24T09:57:23;5.13;;;3.00;;
24030;SDS011;12240;51.142;22.486;2023-06-24T09:59:58;4.65;;;2.30;;
24030;SDS011;12240;51.142;22.486;2023-06-24T10:02:28;6.97;;;3.00;;
24030;SDS011;12240;51.142;22.486;2023-06-24T10:04:59;4.20;;;2.80;;
24030;SDS011;12240;51.142;22.486;2023-06-24T10:07:28;5.20;;;2.67;;
24030;SDS011;12240;51.142;22.486;2023-06-24T10:09:58;8.48;;;2.95;;
24030;SDS011;12240;51.142;22.486;2023-06-24T10:12:30;6.28;;;2.70;;
24030;SDS011;12240;51.142;22.486;2023-06-24T10:14:59;4.93;;;2.60;;
24030;SDS011;12240;51.142;22.486;2023-06-24T10:17:29;4.00;;;2.55;;
24030;SDS011;12240;51.142;22.486;2023-06-24T10:19:57;5.47;;;2.90;;
24030;SDS011;12240;51.142;22.486;2023-06-24T10:22:31;5.28;;;2.40;;
24030;SDS011;12240;51.142;22.486;2023-06-24T10:25:00;4.18;;;2.35;;
24030;SDS011;12240;51.142;22.486;2023-06-24T10:27:38;10.70;;;3.13;;
24030;SDS011;12240;51.142;22.486;2023-06-24T10:30:17;5.90;;;3.08;;
24030;SDS011;12240;51.142;22.486;2023-06-24T10:32:55;5.45;;;2.80;;
24030;SDS011;12240;51.142;22.486;2023-06-24T10:35:24;4.72;;;2.58;;
24030;SDS011;12240;51.142;22.486;2023-06-24T10:37:58;4.97;;;2.63;;
24030;SDS011;12240;51.142;22.486;2023-06-24T10:40:37;4.70;;;2.92;;
24030;SDS011;12240;51.142;22.486;2023-06-24T10:43:26;7.13;;;2.60;;
24030;SDS011;12240;51.142;22.486;2023-06-24T10:45:56;4.85;;;2.63;;
24030;SDS011;12240;51.142;22.486;2023-06-24T10:48:26;4.15;;;2.78;;
24030;SDS011;12240;51.142;22.486;2023-06-24T10:50:55;6.80;;;3.15;;
24030;SDS011;12240;51.142;22.486;2023-06-24T10:53:23;5.50;;;3.00;;
24030;SDS011;12240;51.142;22.486;2023-06-24T10:55:51;7.65;;;2.40;;
24030;SDS011;12240;51.142;22.486;2023-06-24T10:58:24;5.00;;;2.70;;
24030;SDS011;12240;51.142;22.486;2023-06-24T11:00:52;3.80;;;2.58;;
24030;SDS011;12240;51.142;22.486;2023-06-24T11:03:20;6.20;;;2.50;;
24030;SDS011;12240;51.142;22.486;2023-06-24T11:05:49;3.25;;;1.85;;
24030;SDS011;12240;51.142;22.486;2023-06-24T11:08:17;3.17;;;2.38;;
24030;SDS011;12240;51.142;22.486;2023-06-24T11:10:46;6.53;;;2.70;;
24030;SDS011;12240;51.142;22.486;2023-06-24T11:13:16;4.78;;;2.28;;
24030;SDS011;12240;51.142;22.486;2023-06-24T11:15:47;3.08;;;1.75;;
24030;SDS011;12240;51.142;22.486;2023-06-24T11:18:16;6.90;;;2.15;;
24030;SDS011;12240;51.142;22.486;2023-06-24T11:20:44;5.32;;;2.30;;
24030;SDS011;12240;51.142;22.486;2023-06-24T11:23:13;3.80;;;2.10;;
24030;SDS011;12240;51.142;22.486;2023-06-24T11:25:41;6.60;;;2.60;;
24030;SDS011;12240;51.142;22.486;2023-06-24T11:28:14;5.93;;;2.47;;
24030;SDS011;12240;51.142;22.486;2023-06-24T11:30:50;3.45;;;2.08;;
24030;SDS011;12240;51.142;22.486;2023-06-24T11:33:28;3.45;;;2.33;;
24030;SDS011;12240;51.142;22.486;2023-06-24T11:35:57;3.45;;;1.88;;
24030;SDS011;12240;51.142;22.486;2023-06-24T11:38:26;4.95;;;2.50;;
24030;SDS011;12240;51.142;22.486;2023-06-24T11:40:59;3.85;;;2.20;;
24030;SDS011;12240;51.142;22.486;2023-06-24T11:43:27;4.18;;;2.38;;
24030;SDS011;12240;51.142;22.486;2023-06-24T11:45:56;3.08;;;2.22;;
24030;SDS011;12240;51.142;22.486;2023-06-24T11:48:27;5.05;;;2.40;;
24030;SDS011;12240;51.142;22.486;2023-06-24T11:50:57;3.83;;;2.15;;
24030;SDS011;12240;51.142;22.486;2023-06-24T11:53:29;5.40;;;2.80;;
24030;SDS011;12240;51.142;22.486;2023-06-24T11:56:07;6.43;;;2.50;;
24030;SDS011;12240;51.142;22.486;2023-06-24T11:58:36;4.40;;;2.50;;
24030;SDS011;12240;51.142;22.486;2023-06-24T12:01:07;3.42;;;2.20;;
24030;SDS011;12240;51.142;22.486;2023-06-24T12:03:35;6.25;;;2.60;;
24030;SDS011;12240;51.142;22.486;2023-06-24T12:06:05;5.50;;;3.38;;
24030;SDS011;12240;51.142;22.486;2023-06-24T12:08:33;5.28;;;2.40;;
24030;SDS011;12240;51.142;22.486;2023-06-24T12:11:18;6.28;;;3.60;;
24030;SDS011;12240;51.142;22.486;2023-06-24T12:13:46;8.68;;;3.17;;
24030;SDS011;12240;51.142;22.486;2023-06-24T12:16:16;4.35;;;2.25;;
24030;SDS011;12240;51.142;22.486;2023-06-24T12:18:44;7.40;;;2.60;;
24030;SDS011;12240;51.142;22.486;2023-06-24T12:21:13;4.35;;;2.70;;
24030;SDS011;12240;51.142;22.486;2023-06-24T12:23:41;7.03;;;3.00;;
24030;SDS011;12240;51.142;22.486;2023-06-24T12:26:09;5.15;;;2.90;;
24030;SDS011;12240;51.142;22.486;2023-06-24T12:28:38;4.65;;;2.92;;
24030;SDS011;12240;51.142;22.486;2023-06-24T12:31:06;6.30;;;2.80;;
24030;SDS011;12240;51.142;22.486;2023-06-24T12:33:34;3.63;;;2.65;;
24030;SDS011;12240;51.142;22.486;2023-06-24T12:36:02;4.65;;;2.55;;
24030;SDS011;12240;51.142;22.486;2023-06-24T12:38:30;8.50;;;3.92;;
24030;SDS011;12240;51.142;22.486;2023-06-24T12:40:59;7.00;;;2.67;;
24030;SDS011;12240;51.142;22.486;2023-06-24T12:43:27;7.93;;;2.80;;
24030;SDS011;12240;51.142;22.486;2023-06-24T12:45:56;4.60;;;2.58;;
24030;SDS011;12240;51.142;22.486;2023-06-24T12:48:24;5.93;;;2.60;;
24030;SDS011;12240;51.142;22.486;2023-06-24T12:50:53;4.93;;;2.38;;
24030;SDS011;12240;51.142;22.486;2023-06-24T12:53:21;4.07;;;2.33;;
24030;SDS011;12240;51.142;22.486;2023-06-24T12:55:49;9.18;;;2.70;;
24030;SDS011;12240;51.142;22.486;2023-06-24T12:58:22;4.85;;;2.70;;
24030;SDS011;12240;51.142;22.486;2023-06-24T13:00:52;5.03;;;2.65;;
24030;SDS011;12240;51.142;22.486;2023-06-24T13:03:20;6.35;;;2.72;;
24030;SDS011;12240;51.142;22.486;2023-06-24T13:05:48;4.85;;;2.70;;
24030;SDS011;12240;51.142;22.486;2023-06-24T13:08:16;5.85;;;2.40;;
24030;SDS011;12240;51.142;22.486;2023-06-24T13:10:44;6.22;;;2.55;;
24030;SDS011;12240;51.142;22.486;2023-06-24T13:13:13;3.35;;;2.35;;
24030;SDS011;12240;51.142;22.486;2023-06-24T13:15:42;6.40;;;2.80;;
24030;SDS011;12240;51.142;22.486;2023-06-24T13:18:10;3.92;;;2.70;;
24030;SDS011;12240;51.142;22.486;2023-06-24T13:20:38;6.72;;;2.72;;
24030;SDS011;12240;51.142;22.486;2023-06-24T13:23:07;4.25;;;3.08;;
24030;SDS011;12240;51.142;22.486;2023-06-24T13:25:35;7.75;;;3.35;;
24030;SDS011;12240;51.142;22.486;2023-06-24T13:28:04;7.55;;;2.70;;
24030;SDS011;12240;51.142;22.486;2023-06-24T13:30:33;4.38;;;2.75;;
24030;SDS011;12240;51.142;22.486;2023-06-24T13:33:02;6.80;;;3.10;;
24030;SDS011;12240;51.142;22.486;2023-06-24T13:35:30;5.68;;;3.10;;
24030;SDS011;12240;51.142;22.486;2023-06-24T13:37:58;7.10;;;3.35;;
24030;SDS011;12240;51.142;22.486;2023-06-24T13:40:27;7.07;;;3.53;;
24030;SDS011;12240;51.142;22.486;2023-06-24T13:42:55;5.93;;;3.33;;
24030;SDS011;12240;51.142;22.486;2023-06-24T13:45:23;5.50;;;3.35;;
24030;SDS011;12240;51.142;22.486;2023-06-24T13:47:51;7.40;;;3.83;;
24030;SDS011;12240;51.142;22.486;2023-06-24T13:50:19;5.63;;;3.00;;
24030;SDS011;12240;51.142;22.486;2023-06-24T13:52:48;7.57;;;3.28;;
24030;SDS011;12240;51.142;22.486;2023-06-24T13:55:16;7.30;;;3.85;;
24030;SDS011;12240;51.142;22.486;2023-06-24T13:57:44;9.00;;;4.32;;
24030;SDS011;12240;51.142;22.486;2023-06-24T14:00:13;6.95;;;4.30;;
24030;SDS011;12240;51.142;22.486;2023-06-24T14:02:43;7.30;;;4.30;;
24030;SDS011;12240;51.142;22.486;2023-06-24T14:05:11;5.88;;;3.72;;
24030;SDS011;12240;51.142;22.486;2023-06-24T14:07:39;6.68;;;3.75;;
24030;SDS011;12240;51.142;22.486;2023-06-24T14:10:08;9.18;;;3.90;;
24030;SDS011;12240;51.142;22.486;2023-06-24T14:12:37;6.05;;;4.13;;
24030;SDS011;12240;51.142;22.486;2023-06-24T14:15:05;7.57;;;4.32;;
24030;SDS011;12240;51.142;22.486;2023-06-24T14:17:34;7.57;;;3.53;;
24030;SDS011;12240;51.142;22.486;2023-06-24T14:20:02;7.63;;;3.80;;
24030;SDS011;12240;51.142;22.486;2023-06-24T14:22:31;8.85;;;4.50;;
24030;SDS011;12240;51.142;22.486;2023-06-24T14:24:59;7.97;;;4.53;;
24030;SDS011;12240;51.142;22.486;2023-06-24T14:27:28;8.00;;;4.03;;
24030;SDS011;12240;51.142;22.486;2023-06-24T14:29:55;6.80;;;4.00;;
24030;SDS011;12240;51.142;22.486;2023-06-24T14:32:23;8.27;;;4.43;;
24030;SDS011;12240;51.142;22.486;2023-06-24T14:34:54;10.80;;;4.93;;
24030;SDS011;12240;51.142;22.486;2023-06-24T14:37:23;7.30;;;4.68;;
24030;SDS011;12240;51.142;22.486;2023-06-24T14:39:51;9.68;;;4.45;;
24030;SDS011;12240;51.142;22.486;2023-06-24T14:42:20;11.75;;;5.60;;
24030;SDS011;12240;51.142;22.486;2023-06-24T14:44:48;8.88;;;5.00;;
24030;SDS011;12240;51.142;22.486;2023-06-24T14:47:16;8.15;;;4.75;;
24030;SDS011;12240;51.142;22.486;2023-06-24T14:49:44;12.55;;;5.00;;
24030;SDS011;12240;51.142;22.486;2023-06-24T14:52:12;7.72;;;4.10;;
24030;SDS011;12240;51.142;22.486;2023-06-24T14:54:40;6.47;;;4.30;;
24030;SDS011;12240;51.142;22.486;2023-06-24T14:57:08;12.43;;;3.95;;
24030;SDS011;12240;51.142;22.486;2023-06-24T14:59:36;9.48;;;4.43;;
24030;SDS011;12240;51.142;22.486;2023-06-24T15:02:04;10.15;;;4.43;;
24030;SDS011;12240;51.142;22.486;2023-06-24T15:04:32;10.02;;;4.78;;
24030;SDS011;12240;51.142;22.486;2023-06-24T15:07:02;9.10;;;4.32;;
24030;SDS011;12240;51.142;22.486;2023-06-24T15:09:31;10.00;;;4.22;;